Wetterdaten: Woche 22.11.21 - 28.11.21 (KW47)
Datum Zeit Temp. Aussen Temp. o. S. Temp +5cm Feuchte Auss Luftdruck Regen Sonnenschein Regendauer Solar Windben Empfang
22.11.2021 00:00 3,2 C 2,3 C 1,5 C 95 % 1018,1 hPa 0,0 l/m 0,00 h 0,00 h 0 W/m 4,6 km/h (1 Bft) 98,56 %
22.11.2021 01:00 3,3 C 2,6 C 1,7 C 95 % 1018,7 hPa 0,2 l/m 0,00 h 0,00 h 0 W/m 4,6 km/h (1 Bft) 94,89 %
22.11.2021 02:00 3,7 C 3,2 C 2,1 C 96 % 1019,6 hPa 0,0 l/m 0,00 h 0,00 h 0 W/m 8,6 km/h (2 Bft) 98,85 %
22.11.2021 03:00 4,4 C 4,1 C 3,0 C 96 % 1020,4 hPa 0,0 l/m 0,00 h 0,00 h 0 W/m 12,2 km/h (2 Bft) 98,27 %
22.11.2021 04:00 4,9 C 4,6 C 3,5 C 96 % 1021,0 hPa 0,0 l/m 0,00 h 0,00 h 0 W/m 14,6 km/h (3 Bft) 96,52 %
22.11.2021 05:00 5,2 C 5,0 C 3,9 C 95 % 1021,9 hPa 0,0 l/m 0,00 h 0,00 h 0 W/m 6,3 km/h (2 Bft) 98,44 %
22.11.2021 06:00 5,2 C 4,7 C 3,7 C 94 % 1022,9 hPa 0,0 l/m 0,00 h 0,00 h 0 W/m 7,8 km/h (2 Bft) 97,91 %
22.11.2021 07:00 4,7 C 4,0 C 3,0 C 92 % 1023,6 hPa 0,0 l/m 0,00 h 0,00 h 0 W/m 6,3 km/h (2 Bft) 96,61 %
22.11.2021 08:00 4,4 C 3,9 C 2,8 C 93 % 1024,7 hPa 0,0 l/m 0,00 h 0,00 h 15 W/m 10,2 km/h (2 Bft) 96,43 %
22.11.2021 09:00 4,5 C 4,3 C 3,2 C 93 % 1025,7 hPa 0,0 l/m 0,00 h 0,00 h 44 W/m 10,0 km/h (2 Bft) 97,70 %
22.11.2021 10:00 4,8 C 5,2 C 3,6 C 92 % 1026,5 hPa 0,0 l/m 0,23 h 0,00 h 111 W/m 10,1 km/h (2 Bft) 97,55 %
22.11.2021 11:00 5,8 C 6,4 C 4,2 C 89 % 1027,1 hPa 0,0 l/m 0,33 h 0,00 h 115 W/m 10,0 km/h (2 Bft) 94,43 %
22.11.2021 12:00 5,7 C 6,8 C 3,6 C 86 % 1027,2 hPa 0,0 l/m 0,20 h 0,00 h 102 W/m 10,9 km/h (2 Bft) 98,91 %
22.11.2021 13:00 6,8 C 12,5 C 3,9 C 79 % 1027,2 hPa 0,0 l/m 0,77 h 0,00 h 231 W/m 11,4 km/h (2 Bft) 94,37 %
22.11.2021 14:00 7,4 C 11,2 C 3,8 C 72 % 1027,5 hPa 0,0 l/m 1,00 h 0,00 h 210 W/m 12,1 km/h (2 Bft) 96,02 %
22.11.2021 15:00 6,8 C 6,1 C 3,2 C 74 % 1027,9 hPa 0,0 l/m 0,13 h 0,00 h 37 W/m 8,1 km/h (2 Bft) 97,63 %
22.11.2021 16:00 5,9 C 4,6 C 2,0 C 76 % 1028,3 hPa 0,0 l/m 0,00 h 0,00 h 11 W/m 5,6 km/h (1 Bft) 97,62 %
22.11.2021 17:00 4,7 C 3,1 C 0,6 C 80 % 1028,8 hPa 0,0 l/m 0,00 h 0,00 h 0 W/m 2,1 km/h (1 Bft) 96,50 %
22.11.2021 18:00 3,6 C 2,1 C -0,5 C 82 % 1029,3 hPa 0,0 l/m 0,00 h 0,00 h 0 W/m 0,3 km/h (0 Bft) 96,85 %
22.11.2021 19:00 2,5 C 0,8 C -1,4 C 84 % 1029,7 hPa 0,0 l/m 0,00 h 0,00 h 0 W/m 0,0 km/h (0 Bft) 95,56 %
22.11.2021 20:00 1,5 C 0,2 C -1,7 C 87 % 1030,2 hPa 0,0 l/m 0,00 h 0,00 h 0 W/m 0,2 km/h (0 Bft) 97,41 %
22.11.2021 21:00 0,9 C -0,4 C -2,1 C 89 % 1030,3 hPa 0,0 l/m 0,00 h 0,00 h 0 W/m 0,2 km/h (0 Bft) 97,30 %
22.11.2021 22:00 0,5 C -0,8 C -2,2 C 91 % 1030,5 hPa 0,0 l/m 0,00 h 0,00 h 0 W/m 0,0 km/h (0 Bft) 98,08 %
22.11.2021 23:00 0,1 C -1,1 C -2,3 C 92 % 1030,9 hPa 0,0 l/m 0,00 h 0,00 h 0 W/m 0,0 km/h (0 Bft) 95,86 %
23.11.2021 00:00 -0,3 C -1,3 C -2,6 C 92 % 1031,1 hPa 0,0 l/m 0,00 h 0,00 h 0 W/m 0,0 km/h (0 Bft) 96,13 %
23.11.2021 01:00 -0,8 C -1,7 C -2,8 C 92 % 1031,2 hPa 0,0 l/m 0,00 h 0,00 h 0 W/m 0,0 km/h (0 Bft) 97,72 %
23.11.2021 02:00 -1,0 C -1,5 C -2,7 C 93 % 1030,9 hPa 0,0 l/m 0,00 h 0,00 h 0 W/m 0,1 km/h (0 Bft) 96,88 %
23.11.2021 03:00 -1,0 C -1,7 C -2,8 C 93 % 1030,9 hPa 0,0 l/m 0,00 h 0,00 h 0 W/m 0,1 km/h (0 Bft) 96,18 %
23.11.2021 04:00 -0,9 C -1,1 C -2,1 C 94 % 1030,8 hPa 0,0 l/m 0,00 h 0,00 h 0 W/m 1,8 km/h (1 Bft) 96,89 %
23.11.2021 05:00 0,2 C 0,2 C -0,9 C 95 % 1030,7 hPa 0,0 l/m 0,00 h 0,00 h 0 W/m 2,7 km/h (1 Bft) 96,72 %
23.11.2021 06:00 0,8 C 0,7 C -0,6 C 95 % 1030,6 hPa 0,0 l/m 0,00 h 0,03 h 0 W/m 1,9 km/h (1 Bft) 98,78 %
23.11.2021 07:00 1,3 C 1,1 C -0,1 C 95 % 1030,7 hPa 0,0 l/m 0,00 h 0,00 h 0 W/m 4,6 km/h (1 Bft) 96,18 %
23.11.2021 08:00 1,6 C 1,4 C 0,1 C 96 % 1031,1 hPa 0,2 l/m 0,00 h 0,00 h 12 W/m 4,3 km/h (1 Bft) 94,70 %
23.11.2021 09:00 2,4 C 2,2 C 0,9 C 96 % 1031,3 hPa 0,8 l/m 0,03 h 0,23 h 40 W/m 3,7 km/h (1 Bft) 97,37 %
23.11.2021 10:00 3,2 C 3,1 C 1,5 C 97 % 1031,5 hPa 0,2 l/m 0,00 h 0,00 h 53 W/m 4,2 km/h (1 Bft) 95,65 %
23.11.2021 11:00 3,9 C 3,5 C 2,2 C 97 % 1031,4 hPa 0,2 l/m 0,00 h 0,00 h 54 W/m 6,3 km/h (2 Bft) 96,95 %
23.11.2021 12:00 4,4 C 4,1 C 2,8 C 97 % 1031,2 hPa 0,0 l/m 0,00 h 0,00 h 57 W/m 4,1 km/h (1 Bft) 95,70 %
23.11.2021 13:00 4,8 C 4,5 C 3,2 C 97 % 1030,7 hPa 0,0 l/m 0,00 h 0,00 h 55 W/m 4,1 km/h (1 Bft) 96,44 %
23.11.2021 14:00 5,2 C 5,0 C 3,7 C 97 % 1030,3 hPa 0,0 l/m 0,00 h 0,00 h 45 W/m 5,0 km/h (1 Bft) 97,37 %
23.11.2021 15:00 5,4 C 5,0 C 3,9 C 98 % 1030,3 hPa 0,0 l/m 0,00 h 0,00 h 19 W/m 2,6 km/h (1 Bft) 97,70 %
23.11.2021 16:00 5,4 C 4,9 C 3,9 C 98 % 1030,2 hPa 0,0 l/m 0,00 h 0,00 h 3 W/m 1,7 km/h (1 Bft) 95,56 %
23.11.2021 17:00 5,3 C 4,4 C 3,9 C 98 % 1030,1 hPa 0,0 l/m 0,00 h 0,00 h 0 W/m 3,9 km/h (1 Bft) 97,61 %
23.11.2021 18:00 5,3 C 4,5 C 3,9 C 98 % 1030,1 hPa 0,0 l/m 0,00 h 0,00 h 0 W/m 4,3 km/h (1 Bft) 98,08 %
23.11.2021 19:00 5,3 C 4,6 C 4,2 C 98 % 1030,0 hPa 0,0 l/m 0,00 h 0,00 h 0 W/m 3,4 km/h (1 Bft) 97,58 %
23.11.2021 20:00 5,3 C 4,8 C 4,4 C 98 % 1029,8 hPa 0,0 l/m 0,00 h 0,00 h 0 W/m 3,0 km/h (1 Bft) 96,72 %
23.11.2021 21:00 5,4 C 5,0 C 4,4 C 98 % 1029,7 hPa 0,0 l/m 0,00 h 0,00 h 0 W/m 3,3 km/h (1 Bft) 98,79 %
23.11.2021 22:00 5,3 C 4,8 C 4,4 C 98 % 1029,5 hPa 0,0 l/m 0,00 h 0,00 h 0 W/m 4,4 km/h (1 Bft) 95,39 %
23.11.2021 23:00 5,4 C 5,0 C 4,4 C 98 % 1029,2 hPa 0,0 l/m 0,00 h 0,00 h 0 W/m 2,0 km/h (1 Bft) 99,00 %
24.11.2021 00:00 5,4 C 5,0 C 4,4 C 98 % 1028,9 hPa 0,0 l/m 0,00 h 0,00 h 0 W/m 1,5 km/h (1 Bft) 97,74 %
24.11.2021 01:00 5,4 C 5,0 C 4,4 C 98 % 1028,4 hPa 0,0 l/m 0,00 h 0,00 h 0 W/m 3,1 km/h (1 Bft) 96,43 %
24.11.2021 02:00 5,4 C 5,0 C 4,4 C 98 % 1028,1 hPa 0,0 l/m 0,00 h 0,00 h 0 W/m 3,2 km/h (1 Bft) 96,83 %
24.11.2021 03:00 5,4 C 5,0 C 4,4 C 98 % 1027,6 hPa 0,0 l/m 0,00 h 0,00 h 0 W/m 1,8 km/h (1 Bft) 98,26 %
24.11.2021 04:00 5,4 C 5,0 C 4,4 C 98 % 1026,9 hPa 0,0 l/m 0,00 h 0,00 h 0 W/m 1,3 km/h (1 Bft) 96,97 %
24.11.2021 05:00 5,3 C 4,7 C 4,4 C 99 % 1026,2 hPa 0,0 l/m 0,00 h 0,00 h 0 W/m 3,7 km/h (1 Bft) 99,66 %
24.11.2021 06:00 5,1 C 5,0 C 4,4 C 98 % 1025,9 hPa 0,0 l/m 0,00 h 0,00 h 0 W/m 1,8 km/h (1 Bft) 96,56 %
24.11.2021 07:00 5,1 C 5,0 C 4,6 C 98 % 1025,6 hPa 0,0 l/m 0,00 h 0,00 h 0 W/m 2,5 km/h (1 Bft) 97,28 %
24.11.2021 08:00 5,3 C 5,0 C 5,0 C 99 % 1025,4 hPa 0,0 l/m 0,00 h 0,00 h 9 W/m 0,2 km/h (0 Bft) 95,98 %
24.11.2021 09:00 5,6 C 5,7 C 5,1 C 99 % 1025,0 hPa 0,0 l/m 0,00 h 0,00 h 41 W/m 0,5 km/h (0 Bft) 98,34 %
24.11.2021 10:00 5,9 C 6,1 C 5,6 C 99 % 1024,5 hPa 0,0 l/m 0,00 h 0,00 h 55 W/m 3,0 km/h (1 Bft) 97,02 %
24.11.2021 11:00 6,1 C 6,4 C 5,7 C 99 % 1023,8 hPa 0,0 l/m 0,00 h 0,00 h 89 W/m 3,4 km/h (1 Bft) 96,74 %
24.11.2021 12:00 6,5 C 7,2 C 6,1 C 99 % 1022,7 hPa 0,0 l/m 0,00 h 0,00 h 110 W/m 3,8 km/h (1 Bft) 97,00 %
24.11.2021 13:00 6,8 C 7,6 C 6,1 C 99 % 1021,6 hPa 0,0 l/m 0,00 h 0,00 h 105 W/m 4,6 km/h (1 Bft) 96,95 %
24.11.2021 14:00 6,9 C 7,2 C 6,2 C 98 % 1020,7 hPa 0,0 l/m 0,00 h 0,00 h 71 W/m 5,5 km/h (1 Bft) 98,04 %
24.11.2021 15:00 6,8 C 6,7 C 5,9 C 93 % 1020,0 hPa 0,0 l/m 0,00 h 0,00 h 24 W/m 5,2 km/h (1 Bft) 98,11 %
24.11.2021 16:00 6,6 C 6,1 C 5,1 C 85 % 1019,1 hPa 0,0 l/m 0,00 h 0,00 h 8 W/m 3,7 km/h (1 Bft) 94,25 %
24.11.2021 17:00 6,2 C 5,2 C 4,0 C 84 % 1018,4 hPa 0,0 l/m 0,00 h 0,00 h 0 W/m 1,9 km/h (1 Bft) 98,58 %
24.11.2021 18:00 5,2 C 4,1 C 2,9 C 85 % 1017,8 hPa 0,0 l/m 0,00 h 0,00 h 0 W/m 3,1 km/h (1 Bft) 97,55 %
24.11.2021 19:00 4,9 C 4,5 C 3,0 C 87 % 1017,3 hPa 0,0 l/m 0,00 h 0,00 h 0 W/m 1,7 km/h (1 Bft) 95,79 %
24.11.2021 20:00 5,0 C 4,4 C 2,8 C 87 % 1016,9 hPa 0,0 l/m 0,00 h 0,00 h 0 W/m 1,9 km/h (1 Bft) 99,48 %
24.11.2021 21:00 4,9 C 3,8 C 2,3 C 86 % 1016,5 hPa 0,0 l/m 0,00 h 0,00 h 0 W/m 0,3 km/h (0 Bft) 94,89 %
24.11.2021 22:00 3,6 C 1,5 C 0,3 C 87 % 1015,8 hPa 0,0 l/m 0,00 h 0,00 h 0 W/m 0,0 km/h (0 Bft) 97,51 %
24.11.2021 23:00 2,2 C 0,7 C -0,5 C 90 % 1015,2 hPa 0,0 l/m 0,00 h 0,00 h 0 W/m 0,1 km/h (0 Bft) 94,85 %
25.11.2021 00:00 1,6 C 0,8 C -0,7 C 92 % 1014,8 hPa 0,0 l/m 0,00 h 0,00 h 0 W/m 1,2 km/h (1 Bft) 98,07 %
25.11.2021 01:00 1,6 C 1,4 C 0,3 C 93 % 1014,3 hPa 0,0 l/m 0,00 h 0,00 h 0 W/m 1,5 km/h (1 Bft) 96,28 %
25.11.2021 02:00 2,1 C 2,2 C 1,0 C 94 % 1013,9 hPa 0,0 l/m 0,00 h 0,00 h 0 W/m 0,4 km/h (0 Bft) 97,37 %
25.11.2021 03:00 2,3 C 2,2 C 1,0 C 94 % 1013,6 hPa 0,0 l/m 0,00 h 0,00 h 0 W/m 1,0 km/h (0 Bft) 95,95 %
25.11.2021 04:00 2,3 C 2,2 C 1,1 C 94 % 1013,1 hPa 0,0 l/m 0,00 h 0,00 h 0 W/m 3,3 km/h (1 Bft) 97,91 %
25.11.2021 05:00 1,9 C 1,0 C 0,1 C 93 % 1012,7 hPa 0,0 l/m 0,00 h 0,00 h 0 W/m 2,0 km/h (1 Bft) 97,38 %
25.11.2021 06:00 1,1 C -0,0 C -0,7 C 93 % 1012,6 hPa 0,0 l/m 0,00 h 0,00 h 0 W/m 1,8 km/h (1 Bft) 96,60 %
25.11.2021 07:00 0,6 C -0,3 C -1,0 C 94 % 1012,4 hPa 0,0 l/m 0,00 h 0,00 h 0 W/m 3,2 km/h (1 Bft) 96,21 %
25.11.2021 08:00 0,0 C -0,7 C -1,6 C 94 % 1012,8 hPa 0,0 l/m 0,00 h 0,00 h 15 W/m 1,7 km/h (1 Bft) 96,88 %
25.11.2021 09:00 0,4 C 1,0 C -0,1 C 95 % 1012,4 hPa 0,0 l/m 0,37 h 0,00 h 68 W/m 2,9 km/h (1 Bft) 98,57 %
25.11.2021 10:00 1,5 C 1,7 C 0,8 C 95 % 1012,3 hPa 0,0 l/m 0,00 h 0,00 h 49 W/m 8,4 km/h (2 Bft) 95,83 %
25.11.2021 11:00 2,4 C 2,7 C 1,6 C 95 % 1012,5 hPa 0,0 l/m 0,00 h 0,00 h 71 W/m 7,8 km/h (2 Bft) 99,14 %
25.11.2021 12:00 3,1 C 3,4 C 2,2 C 93 % 1012,1 hPa 0,0 l/m 0,00 h 0,00 h 85 W/m 10,2 km/h (2 Bft) 96,35 %
25.11.2021 13:00 3,8 C 3,7 C 2,4 C 91 % 1011,8 hPa 0,0 l/m 0,00 h 0,37 h 63 W/m 7,7 km/h (2 Bft) 98,36 %
25.11.2021 14:00 3,6 C 3,3 C 1,7 C 93 % 1011,4 hPa 0,2 l/m 0,00 h 0,17 h 29 W/m 4,3 km/h (1 Bft) 98,15 %
25.11.2021 15:00 3,7 C 3,5 C 1,7 C 94 % 1010,9 hPa 0,0 l/m 0,00 h 0,00 h 35 W/m 5,9 km/h (2 Bft) 97,51 %
25.11.2021 16:00 3,8 C 3,1 C 1,8 C 94 % 1011,0 hPa 0,0 l/m 0,00 h 0,03 h 10 W/m 3,1 km/h (1 Bft) 95,35 %
25.11.2021 17:00 3,6 C 3,2 C 1,8 C 95 % 1011,1 hPa 0,0 l/m 0,00 h 0,00 h 0 W/m 3,7 km/h (1 Bft) 97,68 %
25.11.2021 18:00 3,9 C 3,3 C 2,2 C 96 % 1011,1 hPa 0,0 l/m 0,00 h 0,00 h 0 W/m 5,8 km/h (2 Bft) 96,64 %
25.11.2021 19:00 4,1 C 3,4 C 2,5 C 97 % 1011,1 hPa 0,0 l/m 0,00 h 0,00 h 0 W/m 4,7 km/h (1 Bft) 97,01 %
25.11.2021 20:00 4,4 C 3,9 C 2,8 C 97 % 1010,8 hPa 0,0 l/m 0,00 h 0,00 h 0 W/m 6,4 km/h (2 Bft) 97,30 %
25.11.2021 21:00 4,3 C 3,8 C 2,8 C 97 % 1010,4 hPa 0,0 l/m 0,00 h 0,00 h 0 W/m 3,4 km/h (1 Bft) 98,92 %
25.11.2021 22:00 4,0 C 3,3 C 2,8 C 97 % 1010,0 hPa 0,0 l/m 0,00 h 0,00 h 0 W/m 5,8 km/h (2 Bft) 94,47 %
25.11.2021 23:00 3,9 C 3,3 C 2,8 C 97 % 1009,3 hPa 0,0 l/m 0,00 h 0,00 h 0 W/m 8,2 km/h (2 Bft) 96,24 %
26.11.2021 00:00 3,6 C 3,3 C 2,8 C 98 % 1008,5 hPa 0,0 l/m 0,00 h 0,00 h 0 W/m 10,2 km/h (2 Bft) 97,91 %
26.11.2021 01:00 3,6 C 3,3 C 2,8 C 98 % 1007,7 hPa 0,0 l/m 0,00 h 0,00 h 0 W/m 7,0 km/h (2 Bft) 93,36 %
26.11.2021 02:00 3,4 C 2,8 C 2,5 C 98 % 1006,7 hPa 0,0 l/m 0,00 h 0,00 h 0 W/m 5,8 km/h (2 Bft) 99,36 %
26.11.2021 03:00 3,1 C 2,8 C 2,3 C 98 % 1005,7 hPa 0,0 l/m 0,00 h 0,00 h 0 W/m 4,2 km/h (1 Bft) 95,70 %
26.11.2021 04:00 3,1 C 2,8 C 2,5 C 98 % 1004,7 hPa 0,0 l/m 0,00 h 0,00 h 0 W/m 9,6 km/h (2 Bft) 97,36 %
26.11.2021 05:00 3,4 C 3,1 C 2,8 C 98 % 1003,6 hPa 0,0 l/m 0,00 h 0,10 h 0 W/m 10,9 km/h (2 Bft) 97,94 %
26.11.2021 06:00 3,6 C 3,3 C 2,8 C 98 % 1002,6 hPa 0,2 l/m 0,00 h 0,63 h 0 W/m 9,9 km/h (2 Bft) 98,00 %
26.11.2021 07:00 3,8 C 3,3 C 2,8 C 98 % 1001,9 hPa 0,4 l/m 0,00 h 0,63 h 0 W/m 8,3 km/h (2 Bft) 96,44 %
26.11.2021 08:00 3,8 C 3,3 C 2,8 C 98 % 1001,0 hPa 0,0 l/m 0,00 h 0,10 h 9 W/m 10,6 km/h (2 Bft) 96,71 %
26.11.2021 09:00 3,8 C 3,3 C 2,8 C 97 % 1000,1 hPa 0,0 l/m 0,00 h 0,00 h 33 W/m 14,5 km/h (3 Bft) 97,80 %
26.11.2021 10:00 3,9 C 3,8 C 2,9 C 97 % 999,3 hPa 0,0 l/m 0,00 h 0,00 h 64 W/m 15,8 km/h (3 Bft) 97,51 %
26.11.2021 11:00 4,0 C 3,9 C 3,1 C 93 % 998,0 hPa 0,0 l/m 0,00 h 0,00 h 87 W/m 20,1 km/h (4 Bft) 94,99 %
26.11.2021 12:00 4,4 C 4,4 C 3,3 C 82 % 996,3 hPa 0,0 l/m 0,00 h 0,00 h 111 W/m 22,6 km/h (4 Bft) 98,93 %
26.11.2021 13:00 5,1 C 5,2 C 3,7 C 80 % 994,8 hPa 0,0 l/m 0,10 h 0,00 h 115 W/m 24,9 km/h (4 Bft) 96,94 %
26.11.2021 14:00 5,4 C 5,2 C 3,4 C 81 % 993,1 hPa 0,0 l/m 0,07 h 0,17 h 68 W/m 25,6 km/h (4 Bft) 97,37 %
26.11.2021 15:00 4,7 C 4,0 C 1,7 C 86 % 991,6 hPa 0,4 l/m 0,00 h 0,87 h 18 W/m 27,7 km/h (4 Bft) 98,93 %
26.11.2021 16:00 4,3 C 3,6 C 1,1 C 88 % 990,2 hPa 0,2 l/m 0,00 h 0,80 h 8 W/m 27,6 km/h (4 Bft) 94,92 %
26.11.2021 17:00 4,3 C 3,3 C 1,1 C 89 % 989,0 hPa 0,4 l/m 0,00 h 0,90 h 0 W/m 24,8 km/h (4 Bft) 98,29 %
26.11.2021 18:00 4,3 C 3,3 C 1,1 C 91 % 987,9 hPa 1,0 l/m 0,00 h 0,67 h 0 W/m 28,2 km/h (4 Bft) 98,19 %
26.11.2021 19:00 4,1 C 3,3 C 1,1 C 92 % 987,1 hPa 0,4 l/m 0,00 h 0,17 h 0 W/m 26,9 km/h (4 Bft) 96,79 %
26.11.2021 20:00 4,1 C 3,4 C 1,1 C 91 % 986,4 hPa 0,0 l/m 0,00 h 0,00 h 0 W/m 28,3 km/h (4 Bft) 95,80 %
26.11.2021 21:00 4,2 C 3,6 C 1,7 C 92 % 985,7 hPa 0,0 l/m 0,00 h 0,40 h 0 W/m 21,3 km/h (4 Bft) 98,07 %
26.11.2021 22:00 4,1 C 3,3 C 1,7 C 93 % 985,0 hPa 0,8 l/m 0,00 h 0,50 h 0 W/m 14,9 km/h (3 Bft) 95,74 %
26.11.2021 23:00 4,0 C 3,6 C 1,7 C 93 % 984,7 hPa 0,0 l/m 0,00 h 0,00 h 0 W/m 17,1 km/h (3 Bft) 95,69 %
27.11.2021 00:00 4,1 C 3,9 C 1,7 C 93 % 984,5 hPa 0,0 l/m 0,00 h 0,00 h 0 W/m 17,5 km/h (3 Bft) 97,78 %
27.11.2021 01:00 4,3 C 3,9 C 1,7 C 92 % 984,1 hPa 0,0 l/m 0,00 h 0,00 h 0 W/m 12,7 km/h (3 Bft) 97,64 %
27.11.2021 02:00 4,3 C 3,9 C 2,1 C 93 % 984,1 hPa 0,0 l/m 0,00 h 0,00 h 0 W/m 14,8 km/h (3 Bft) 94,59 %
27.11.2021 03:00 3,8 C 3,3 C 1,6 C 94 % 984,3 hPa 0,0 l/m 0,00 h 0,00 h 0 W/m 15,9 km/h (3 Bft) 97,44 %
27.11.2021 04:00 2,5 C 2,2 C 0,6 C 93 % 984,9 hPa 0,0 l/m 0,00 h 0,00 h 0 W/m 11,3 km/h (2 Bft) 95,99 %
27.11.2021 05:00 2,4 C 2,0 C 0,8 C 94 % 985,6 hPa 0,0 l/m 0,00 h 0,00 h 0 W/m 7,6 km/h (2 Bft) 96,16 %
27.11.2021 06:00 2,4 C 2,0 C 0,7 C 95 % 986,3 hPa 0,0 l/m 0,00 h 0,00 h 0 W/m 7,8 km/h (2 Bft) 98,49 %
27.11.2021 07:00 2,5 C 2,1 C 1,0 C 95 % 987,0 hPa 0,0 l/m 0,00 h 0,00 h 0 W/m 7,5 km/h (2 Bft) 95,99 %
27.11.2021 08:00 2,9 C 2,7 C 1,1 C 95 % 988,0 hPa 0,0 l/m 0,00 h 0,00 h 10 W/m 8,3 km/h (2 Bft) 97,28 %
27.11.2021 09:00 2,9 C 2,9 C 1,1 C 94 % 988,8 hPa 0,0 l/m 0,23 h 0,00 h 64 W/m 8,5 km/h (2 Bft) 94,78 %
27.11.2021 10:00 3,5 C 3,5 C 1,2 C 93 % 989,5 hPa 0,0 l/m 0,83 h 0,00 h 178 W/m 13,0 km/h (3 Bft) 99,00 %
27.11.2021 11:00 4,1 C 4,5 C 1,9 C 89 % 990,2 hPa 0,0 l/m 0,07 h 0,00 h 88 W/m 10,1 km/h (2 Bft) 98,93 %
27.11.2021 12:00 5,1 C 9,1 C 2,8 C 82 % 990,3 hPa 0,0 l/m 0,50 h 0,00 h 196 W/m 15,4 km/h (3 Bft) 97,75 %
27.11.2021 13:00 6,4 C 12,5 C 3,3 C 74 % 990,6 hPa 0,0 l/m 0,97 h 0,00 h 276 W/m 13,5 km/h (3 Bft) 95,44 %
27.11.2021 14:00 5,7 C 6,8 C 2,7 C 78 % 991,0 hPa 0,0 l/m 0,47 h 0,00 h 113 W/m 12,7 km/h (3 Bft) 99,29 %
27.11.2021 15:00 5,0 C 4,5 C 2,0 C 80 % 991,3 hPa 0,0 l/m 0,07 h 0,00 h 37 W/m 9,9 km/h (2 Bft) 97,87 %
27.11.2021 16:00 4,7 C 3,9 C 1,7 C 83 % 991,8 hPa 0,0 l/m 0,00 h 0,00 h 11 W/m 5,3 km/h (1 Bft) 96,42 %
27.11.2021 17:00 4,6 C 3,9 C 1,7 C 82 % 992,4 hPa 0,0 l/m 0,00 h 0,00 h 0 W/m 12,7 km/h (3 Bft) 99,01 %
27.11.2021 18:00 4,5 C 3,9 C 1,6 C 81 % 992,9 hPa 0,0 l/m 0,00 h 0,00 h 0 W/m 6,5 km/h (2 Bft) 95,16 %
27.11.2021 19:00 4,0 C 2,8 C 0,6 C 83 % 993,2 hPa 0,0 l/m 0,00 h 0,00 h 0 W/m 5,8 km/h (2 Bft) 97,37 %
27.11.2021 20:00 2,7 C 1,9 C -0,2 C 86 % 993,6 hPa 0,0 l/m 0,00 h 0,00 h 0 W/m 8,8 km/h (2 Bft) 98,51 %
27.11.2021 21:00 2,5 C 2,2 C 0,0 C 88 % 993,8 hPa 0,0 l/m 0,00 h 0,00 h 0 W/m 8,5 km/h (2 Bft) 97,22 %
27.11.2021 22:00 2,8 C 2,3 C 0,1 C 88 % 994,2 hPa 0,0 l/m 0,00 h 0,00 h 0 W/m 8,6 km/h (2 Bft) 97,79 %
27.11.2021 23:00 2,9 C 2,3 C 0,3 C 87 % 994,4 hPa 0,0 l/m 0,00 h 0,00 h 0 W/m 7,0 km/h (2 Bft) 95,77 %
28.11.2021 00:00 2,9 C 2,2 C 0,0 C 88 % 994,6 hPa 0,0 l/m 0,00 h 0,00 h 0 W/m 5,1 km/h (1 Bft) 99,34 %
28.11.2021 01:00 2,8 C 2,2 C 0,0 C 89 % 994,7 hPa 0,0 l/m 0,00 h 0,00 h 0 W/m 6,5 km/h (2 Bft) 93,82 %
28.11.2021 02:00 2,3 C 1,5 C -0,4 C 90 % 995,0 hPa 0,0 l/m 0,00 h 0,00 h 0 W/m 4,6 km/h (1 Bft) 99,07 %
28.11.2021 03:00 1,4 C -0,3 C -1,9 C 90 % 995,1 hPa 0,0 l/m 0,00 h 0,00 h 0 W/m 0,4 km/h (0 Bft) 97,72 %
28.11.2021 04:00 0,0 C -1,6 C -3,1 C 90 % 995,3 hPa 0,0 l/m 0,00 h 0,00 h 0 W/m 0,0 km/h (0 Bft) 96,58 %
28.11.2021 05:00 -1,0 C -1,6 C -3,0 C 90 % 995,7 hPa 0,0 l/m 0,00 h 0,00 h 0 W/m 0,0 km/h (0 Bft) 96,65 %
28.11.2021 06:00 -0,2 C -0,1 C -1,7 C 92 % 996,2 hPa 0,0 l/m 0,00 h 0,00 h 0 W/m 1,0 km/h (0 Bft) 98,57 %
28.11.2021 07:00 0,6 C 0,5 C -1,1 C 94 % 996,5 hPa 0,0 l/m 0,00 h 0,00 h 0 W/m 0,7 km/h (0 Bft) 97,59 %
28.11.2021 08:00 0,9 C 0,6 C -1,0 C 94 % 997,0 hPa 0,0 l/m 0,00 h 0,00 h 6 W/m 0,1 km/h (0 Bft) 97,01 %
28.11.2021 09:00 1,2 C 1,2 C -0,3 C 95 % 997,5 hPa 0,0 l/m 0,00 h 0,00 h 30 W/m 0,6 km/h (0 Bft) 96,59 %
28.11.2021 10:00 1,9 C 2,2 C 0,4 C 95 % 997,9 hPa 0,0 l/m 0,00 h 0,00 h 67 W/m 4,6 km/h (1 Bft) 98,64 %
28.11.2021 11:00 2,8 C 3,9 C 1,5 C 95 % 998,0 hPa 0,0 l/m 0,00 h 0,00 h 115 W/m 6,9 km/h (2 Bft) 96,87 %
28.11.2021 12:00 4,0 C 6,6 C 2,0 C 93 % 998,0 hPa 0,0 l/m 0,37 h 0,00 h 168 W/m 11,4 km/h (2 Bft) 97,89 %
28.11.2021 13:00 4,3 C 5,3 C 1,9 C 88 % 998,1 hPa 0,0 l/m 0,23 h 0,00 h 111 W/m 11,3 km/h (2 Bft) 98,64 %
28.11.2021 14:00 4,9 C 6,6 C 2,4 C 85 % 998,1 hPa 0,0 l/m 0,67 h 0,00 h 147 W/m 10,1 km/h (2 Bft) 96,22 %
28.11.2021 15:00 4,6 C 4,1 C 1,9 C 86 % 998,4 hPa 0,0 l/m 0,00 h 0,00 h 37 W/m 8,7 km/h (2 Bft) 97,56 %
28.11.2021 16:00 4,1 C 3,4 C 1,3 C 89 % 998,8 hPa 0,2 l/m 0,00 h 0,10 h 12 W/m 7,6 km/h (2 Bft) 97,37 %
28.11.2021 17:00 3,4 C 2,4 C 0,7 C 91 % 999,2 hPa 0,0 l/m 0,00 h 0,17 h 0 W/m 11,9 km/h (2 Bft) 97,08 %
28.11.2021 18:00 2,9 C 2,2 C 0,3 C 93 % 999,8 hPa 0,0 l/m 0,00 h 0,00 h 0 W/m 4,3 km/h (1 Bft) 95,54 %
28.11.2021 19:00 2,6 C 2,1 C 0,0 C 94 % 1000,5 hPa 0,0 l/m 0,00 h 0,00 h 0 W/m 8,6 km/h (2 Bft) 98,72 %
28.11.2021 20:00 2,1 C 1,3 C -0,2 C 94 % 1001,0 hPa 0,0 l/m 0,00 h 0,00 h 0 W/m 7,4 km/h (2 Bft) 94,81 %
28.11.2021 21:00 1,5 C 0,5 C -0,8 C 95 % 1001,5 hPa 0,2 l/m 0,00 h 0,00 h 0 W/m 3,9 km/h (1 Bft) 97,48 %
28.11.2021 22:00 0,9 C 0,0 C -1,1 C 95 % 1002,0 hPa 0,0 l/m 0,00 h 0,00 h 0 W/m 4,6 km/h (1 Bft) 97,51 %
28.11.2021 23:00 0,4 C -0,4 C -1,5 C 95 % 1002,3 hPa 0,0 l/m 0,00 h 0,00 h 0 W/m 3,9 km/h (1 Bft) 96,44 %
Min-Datum _ 28.11.21 28.11.21 28.11.21 22.11.21 27.11.21 - - - - 22.11.21 22.11.21
_ Min-Zeit 05:34 05:00 04:28 14:22 01:20 - - - - 00:04 11:24
Minimum _ -1,2 C -2,2 C -3,3 C 70 % 984,0 hPa - - - - 0,0 km/h (0 Bft) 38,89 %
Max-Datum _ 22.11.21 27.11.21 24.11.21 24.11.21 23.11.21 26.11.21 22.11.21 26.11.21 28.11.21 26.11.21 22.11.21
_ Max-Zeit 14:18 13:08 13:36 05:02 10:14 18:00 10:20 18:08 12:50 14:58 00:00
Maximum _ 7,5 C 17,8 C 6,7 C 99 % 1031,6 hPa 1,0 l/m 0,03 h 0,07 h 393 W/m 54,7 km/h
S-SW (7 Bft)
100,00 %
Durchschnitt _ 3,6 C 3,3 C 1,8 C 92 % 1010,6 hPa #6,0 l/m #7:38 h #7:02 h 69 W/m 7,0 km/h (2 Bft) 97,08 %
© 2021 W. Hausmann